sensor_id;sensor_type;location;lat;lon;timestamp;P1;durP1;ratioP1;P2;durP2;ratioP2
45388;SDS011;31127;52.078;4.370;2023-03-12T00:00:23;10.13;;;3.80;;
45388;SDS011;31127;52.078;4.370;2023-03-12T00:05:18;9.93;;;4.15;;
45388;SDS011;31127;52.078;4.370;2023-03-12T00:10:33;11.13;;;4.28;;
45388;SDS011;31127;52.078;4.370;2023-03-12T00:15:47;11.68;;;4.50;;
45388;SDS011;31127;52.078;4.370;2023-03-12T00:20:42;6.90;;;4.22;;
45388;SDS011;31127;52.078;4.370;2023-03-12T00:25:38;8.67;;;3.90;;
45388;SDS011;31127;52.078;4.370;2023-03-12T00:30:33;9.27;;;4.70;;
45388;SDS011;31127;52.078;4.370;2023-03-12T00:35:28;13.13;;;4.77;;
45388;SDS011;31127;52.078;4.370;2023-03-12T00:40:24;13.50;;;5.30;;
45388;SDS011;31127;52.078;4.370;2023-03-12T00:45:19;9.77;;;4.33;;
45388;SDS011;31127;52.078;4.370;2023-03-12T00:50:38;11.13;;;5.30;;
45388;SDS011;31127;52.078;4.370;2023-03-12T00:55:34;12.45;;;4.20;;
45388;SDS011;31127;52.078;4.370;2023-03-12T01:00:29;11.25;;;4.50;;
45388;SDS011;31127;52.078;4.370;2023-03-12T01:05:26;12.15;;;4.80;;
45388;SDS011;31127;52.078;4.370;2023-03-12T01:10:21;12.75;;;4.60;;
45388;SDS011;31127;52.078;4.370;2023-03-12T01:15:17;10.48;;;4.93;;
45388;SDS011;31127;52.078;4.370;2023-03-12T01:20:13;13.70;;;4.72;;
45388;SDS011;31127;52.078;4.370;2023-03-12T01:25:09;12.32;;;4.63;;
45388;SDS011;31127;52.078;4.370;2023-03-12T01:30:06;8.70;;;4.10;;
45388;SDS011;31127;52.078;4.370;2023-03-12T01:35:02;14.02;;;4.25;;
45388;SDS011;31127;52.078;4.370;2023-03-12T01:39:57;10.93;;;3.78;;
45388;SDS011;31127;52.078;4.370;2023-03-12T01:45:02;10.55;;;4.07;;
45388;SDS011;31127;52.078;4.370;2023-03-12T01:49:59;11.85;;;4.18;;
45388;SDS011;31127;52.078;4.370;2023-03-12T01:55:29;7.30;;;3.20;;
45388;SDS011;31127;52.078;4.370;2023-03-12T02:00:37;9.80;;;3.80;;
45388;SDS011;31127;52.078;4.370;2023-03-12T02:10:33;9.63;;;3.80;;
45388;SDS011;31127;52.078;4.370;2023-03-12T02:15:28;10.40;;;3.22;;
45388;SDS011;31127;52.078;4.370;2023-03-12T02:20:47;13.23;;;5.05;;
45388;SDS011;31127;52.078;4.370;2023-03-12T02:25:47;10.55;;;3.25;;
45388;SDS011;31127;52.078;4.370;2023-03-12T02:30:45;15.75;;;4.03;;
45388;SDS011;31127;52.078;4.370;2023-03-12T02:35:42;10.48;;;3.97;;
45388;SDS011;31127;52.078;4.370;2023-03-12T02:40:41;11.98;;;4.43;;
45388;SDS011;31127;52.078;4.370;2023-03-12T02:45:38;8.93;;;3.40;;
45388;SDS011;31127;52.078;4.370;2023-03-12T02:50:33;8.85;;;3.55;;
45388;SDS011;31127;52.078;4.370;2023-03-12T02:55:29;12.02;;;3.67;;
45388;SDS011;31127;52.078;4.370;2023-03-12T03:00:25;16.45;;;4.07;;
45388;SDS011;31127;52.078;4.370;2023-03-12T03:05:22;11.77;;;3.53;;
45388;SDS011;31127;52.078;4.370;2023-03-12T03:10:18;12.80;;;3.80;;
45388;SDS011;31127;52.078;4.370;2023-03-12T03:15:14;9.40;;;3.60;;
45388;SDS011;31127;52.078;4.370;2023-03-12T03:20:09;7.88;;;4.22;;
45388;SDS011;31127;52.078;4.370;2023-03-12T03:25:06;13.52;;;3.60;;
45388;SDS011;31127;52.078;4.370;2023-03-12T03:30:03;11.40;;;3.63;;
45388;SDS011;31127;52.078;4.370;2023-03-12T03:35:01;22.40;;;3.83;;
45388;SDS011;31127;52.078;4.370;2023-03-12T03:39:57;11.88;;;4.55;;
45388;SDS011;31127;52.078;4.370;2023-03-12T03:44:53;9.20;;;3.88;;
45388;SDS011;31127;52.078;4.370;2023-03-12T03:49:48;9.15;;;3.80;;
45388;SDS011;31127;52.078;4.370;2023-03-12T03:54:44;9.93;;;3.42;;
45388;SDS011;31127;52.078;4.370;2023-03-12T04:00:00;12.63;;;4.70;;
45388;SDS011;31127;52.078;4.370;2023-03-12T04:04:56;9.27;;;4.72;;
45388;SDS011;31127;52.078;4.370;2023-03-12T04:09:54;6.30;;;3.60;;
45388;SDS011;31127;52.078;4.370;2023-03-12T04:14:49;11.20;;;4.40;;
45388;SDS011;31127;52.078;4.370;2023-03-12T04:20:05;10.07;;;4.72;;
45388;SDS011;31127;52.078;4.370;2023-03-12T04:25:06;15.95;;;5.70;;
45388;SDS011;31127;52.078;4.370;2023-03-12T04:30:02;13.52;;;5.65;;
45388;SDS011;31127;52.078;4.370;2023-03-12T04:34:59;20.30;;;8.10;;
45388;SDS011;31127;52.078;4.370;2023-03-12T04:39:55;32.20;;;7.63;;
45388;SDS011;31127;52.078;4.370;2023-03-12T04:44:50;13.45;;;6.68;;
45388;SDS011;31127;52.078;4.370;2023-03-12T04:49:47;16.90;;;7.50;;
45388;SDS011;31127;52.078;4.370;2023-03-12T04:54:43;14.50;;;7.82;;
45388;SDS011;31127;52.078;4.370;2023-03-12T04:59:38;13.43;;;7.28;;
45388;SDS011;31127;52.078;4.370;2023-03-12T05:04:34;13.68;;;7.53;;
45388;SDS011;31127;52.078;4.370;2023-03-12T05:09:29;18.95;;;8.00;;
45388;SDS011;31127;52.078;4.370;2023-03-12T05:14:25;14.98;;;7.97;;
45388;SDS011;31127;52.078;4.370;2023-03-12T05:19:21;19.25;;;7.80;;
45388;SDS011;31127;52.078;4.370;2023-03-12T05:24:17;21.52;;;10.15;;
45388;SDS011;31127;52.078;4.370;2023-03-12T05:29:32;15.98;;;8.68;;
45388;SDS011;31127;52.078;4.370;2023-03-12T05:34:30;25.23;;;10.07;;
45388;SDS011;31127;52.078;4.370;2023-03-12T05:39:26;24.70;;;10.77;;
45388;SDS011;31127;52.078;4.370;2023-03-12T05:44:24;23.83;;;10.93;;
45388;SDS011;31127;52.078;4.370;2023-03-12T05:49:23;25.25;;;12.45;;
45388;SDS011;31127;52.078;4.370;2023-03-12T05:54:18;24.98;;;11.15;;
45388;SDS011;31127;52.078;4.370;2023-03-12T05:59:16;27.08;;;13.68;;
45388;SDS011;31127;52.078;4.370;2023-03-12T06:04:12;27.98;;;15.13;;
45388;SDS011;31127;52.078;4.370;2023-03-12T06:09:07;27.55;;;15.18;;
45388;SDS011;31127;52.078;4.370;2023-03-12T06:14:03;35.45;;;18.63;;
45388;SDS011;31127;52.078;4.370;2023-03-12T06:19:01;27.70;;;18.35;;
45388;SDS011;31127;52.078;4.370;2023-03-12T06:23:57;33.00;;;19.92;;
45388;SDS011;31127;52.078;4.370;2023-03-12T06:28:57;37.47;;;21.85;;
45388;SDS011;31127;52.078;4.370;2023-03-12T06:33:52;20.75;;;12.88;;
45388;SDS011;31127;52.078;4.370;2023-03-12T06:38:48;34.40;;;21.02;;
45388;SDS011;31127;52.078;4.370;2023-03-12T06:43:44;36.67;;;23.08;;
45388;SDS011;31127;52.078;4.370;2023-03-12T06:48:40;37.10;;;22.63;;
45388;SDS011;31127;52.078;4.370;2023-03-12T06:53:35;32.97;;;21.08;;
45388;SDS011;31127;52.078;4.370;2023-03-12T06:58:31;32.42;;;20.42;;
45388;SDS011;31127;52.078;4.370;2023-03-12T07:03:46;38.13;;;25.92;;
45388;SDS011;31127;52.078;4.370;2023-03-12T07:08:42;43.83;;;26.52;;
45388;SDS011;31127;52.078;4.370;2023-03-12T07:13:37;44.28;;;26.95;;
45388;SDS011;31127;52.078;4.370;2023-03-12T07:18:33;49.78;;;29.30;;
45388;SDS011;31127;52.078;4.370;2023-03-12T07:23:28;49.80;;;28.47;;
45388;SDS011;31127;52.078;4.370;2023-03-12T07:28:24;50.30;;;28.02;;
45388;SDS011;31127;52.078;4.370;2023-03-12T07:33:20;45.25;;;23.60;;
45388;SDS011;31127;52.078;4.370;2023-03-12T07:38:15;32.00;;;18.42;;
45388;SDS011;31127;52.078;4.370;2023-03-12T07:43:11;49.97;;;24.70;;
45388;SDS011;31127;52.078;4.370;2023-03-12T07:48:08;48.38;;;22.75;;
45388;SDS011;31127;52.078;4.370;2023-03-12T07:53:04;48.22;;;25.35;;
45388;SDS011;31127;52.078;4.370;2023-03-12T07:58:00;51.90;;;27.30;;
45388;SDS011;31127;52.078;4.370;2023-03-12T08:02:55;58.17;;;29.38;;
45388;SDS011;31127;52.078;4.370;2023-03-12T08:07:51;65.28;;;31.23;;
45388;SDS011;31127;52.078;4.370;2023-03-12T08:12:46;67.97;;;32.28;;
45388;SDS011;31127;52.078;4.370;2023-03-12T08:17:42;58.95;;;29.77;;
45388;SDS011;31127;52.078;4.370;2023-03-12T08:22:38;64.25;;;31.58;;
45388;SDS011;31127;52.078;4.370;2023-03-12T08:27:34;64.93;;;30.08;;
45388;SDS011;31127;52.078;4.370;2023-03-12T08:32:49;52.67;;;26.38;;
45388;SDS011;31127;52.078;4.370;2023-03-12T08:37:45;46.30;;;18.83;;
45388;SDS011;31127;52.078;4.370;2023-03-12T08:42:41;49.70;;;18.48;;
45388;SDS011;31127;52.078;4.370;2023-03-12T08:47:36;45.55;;;15.30;;
45388;SDS011;31127;52.078;4.370;2023-03-12T08:52:35;34.30;;;12.15;;
45388;SDS011;31127;52.078;4.370;2023-03-12T08:57:31;35.00;;;8.77;;
45388;SDS011;31127;52.078;4.370;2023-03-12T09:02:26;34.03;;;8.93;;
45388;SDS011;31127;52.078;4.370;2023-03-12T09:07:22;35.13;;;6.97;;
45388;SDS011;31127;52.078;4.370;2023-03-12T09:12:18;41.17;;;8.20;;
45388;SDS011;31127;52.078;4.370;2023-03-12T09:17:13;34.38;;;6.45;;
45388;SDS011;31127;52.078;4.370;2023-03-12T09:22:09;39.60;;;8.65;;
45388;SDS011;31127;52.078;4.370;2023-03-12T09:27:04;38.45;;;7.07;;
45388;SDS011;31127;52.078;4.370;2023-03-12T09:32:00;32.80;;;6.93;;
45388;SDS011;31127;52.078;4.370;2023-03-12T09:36:55;29.88;;;8.27;;
45388;SDS011;31127;52.078;4.370;2023-03-12T09:41:51;37.08;;;6.63;;
45388;SDS011;31127;52.078;4.370;2023-03-12T09:51:43;33.38;;;7.63;;
45388;SDS011;31127;52.078;4.370;2023-03-12T09:56:39;50.92;;;8.50;;
45388;SDS011;31127;52.078;4.370;2023-03-12T10:02:12;32.20;;;7.45;;
45388;SDS011;31127;52.078;4.370;2023-03-12T10:07:01;44.15;;;7.88;;
45388;SDS011;31127;52.078;4.370;2023-03-12T10:28:10;37.78;;;7.80;;
45388;SDS011;31127;52.078;4.370;2023-03-12T10:33:08;42.78;;;7.13;;
45388;SDS011;31127;52.078;4.370;2023-03-12T10:38:08;39.55;;;7.53;;
45388;SDS011;31127;52.078;4.370;2023-03-12T10:43:05;38.50;;;7.43;;
45388;SDS011;31127;52.078;4.370;2023-03-12T10:48:02;40.95;;;8.35;;
45388;SDS011;31127;52.078;4.370;2023-03-12T10:53:26;38.70;;;6.75;;
45388;SDS011;31127;52.078;4.370;2023-03-12T10:58:23;35.72;;;7.45;;
45388;SDS011;31127;52.078;4.370;2023-03-12T11:03:19;24.77;;;6.07;;
45388;SDS011;31127;52.078;4.370;2023-03-12T11:23:15;41.40;;;6.15;;
45388;SDS011;31127;52.078;4.370;2023-03-12T11:28:38;35.10;;;7.15;;
45388;SDS011;31127;52.078;4.370;2023-03-12T11:33:51;35.53;;;8.18;;
45388;SDS011;31127;52.078;4.370;2023-03-12T11:44:35;40.72;;;7.82;;
45388;SDS011;31127;52.078;4.370;2023-03-12T11:50:02;43.58;;;9.18;;
45388;SDS011;31127;52.078;4.370;2023-03-12T11:55:22;36.90;;;8.52;;
45388;SDS011;31127;52.078;4.370;2023-03-12T12:00:31;41.53;;;6.87;;
45388;SDS011;31127;52.078;4.370;2023-03-12T12:10:56;38.78;;;8.38;;
45388;SDS011;31127;52.078;4.370;2023-03-12T12:26:16;29.65;;;6.15;;
45388;SDS011;31127;52.078;4.370;2023-03-12T12:36:20;41.08;;;8.40;;
45388;SDS011;31127;52.078;4.370;2023-03-12T12:41:18;29.27;;;8.05;;
45388;SDS011;31127;52.078;4.370;2023-03-12T12:46:36;31.00;;;7.53;;
45388;SDS011;31127;52.078;4.370;2023-03-12T12:51:34;33.17;;;7.40;;
45388;SDS011;31127;52.078;4.370;2023-03-12T12:56:41;35.25;;;7.07;;
45388;SDS011;31127;52.078;4.370;2023-03-12T13:01:37;34.47;;;7.75;;
45388;SDS011;31127;52.078;4.370;2023-03-12T13:06:52;30.33;;;7.20;;
45388;SDS011;31127;52.078;4.370;2023-03-12T13:11:48;36.05;;;8.48;;
45388;SDS011;31127;52.078;4.370;2023-03-12T13:16:46;33.85;;;8.25;;
45388;SDS011;31127;52.078;4.370;2023-03-12T13:26:58;35.33;;;6.93;;
45388;SDS011;31127;52.078;4.370;2023-03-12T13:31:54;33.38;;;7.88;;
45388;SDS011;31127;52.078;4.370;2023-03-12T13:36:50;30.98;;;7.38;;
45388;SDS011;31127;52.078;4.370;2023-03-12T13:41:47;30.17;;;8.05;;
45388;SDS011;31127;52.078;4.370;2023-03-12T13:46:44;29.83;;;7.15;;
45388;SDS011;31127;52.078;4.370;2023-03-12T13:51:52;27.92;;;6.68;;
45388;SDS011;31127;52.078;4.370;2023-03-12T13:56:54;30.83;;;7.22;;
45388;SDS011;31127;52.078;4.370;2023-03-12T14:01:53;28.13;;;7.05;;
45388;SDS011;31127;52.078;4.370;2023-03-12T14:17:00;35.63;;;8.98;;
45388;SDS011;31127;52.078;4.370;2023-03-12T14:21:59;34.17;;;7.63;;
45388;SDS011;31127;52.078;4.370;2023-03-12T14:26:55;38.90;;;8.68;;
45388;SDS011;31127;52.078;4.370;2023-03-12T14:31:51;43.30;;;9.10;;
45388;SDS011;31127;52.078;4.370;2023-03-12T14:36:54;45.13;;;9.55;;
45388;SDS011;31127;52.078;4.370;2023-03-12T14:41:56;43.33;;;8.30;;
45388;SDS011;31127;52.078;4.370;2023-03-12T14:46:57;40.92;;;8.77;;
45388;SDS011;31127;52.078;4.370;2023-03-12T14:51:53;38.88;;;9.27;;
45388;SDS011;31127;52.078;4.370;2023-03-12T14:56:48;40.20;;;8.77;;
45388;SDS011;31127;52.078;4.370;2023-03-12T15:02:15;36.05;;;7.65;;
45388;SDS011;31127;52.078;4.370;2023-03-12T15:07:12;36.45;;;7.20;;
45388;SDS011;31127;52.078;4.370;2023-03-12T15:12:25;31.67;;;7.05;;
45388;SDS011;31127;52.078;4.370;2023-03-12T15:17:22;52.03;;;9.40;;
45388;SDS011;31127;52.078;4.370;2023-03-12T15:22:19;40.97;;;8.13;;
45388;SDS011;31127;52.078;4.370;2023-03-12T15:27:35;39.55;;;8.63;;
45388;SDS011;31127;52.078;4.370;2023-03-12T15:32:30;49.92;;;10.27;;
45388;SDS011;31127;52.078;4.370;2023-03-12T15:37:30;51.73;;;10.17;;
45388;SDS011;31127;52.078;4.370;2023-03-12T15:42:37;49.03;;;9.10;;
45388;SDS011;31127;52.078;4.370;2023-03-12T15:47:33;52.92;;;8.40;;
45388;SDS011;31127;52.078;4.370;2023-03-12T15:52:34;55.30;;;10.20;;
45388;SDS011;31127;52.078;4.370;2023-03-12T15:57:30;48.53;;;12.13;;
45388;SDS011;31127;52.078;4.370;2023-03-12T16:02:35;48.28;;;9.38;;
45388;SDS011;31127;52.078;4.370;2023-03-12T16:07:31;48.05;;;9.43;;
45388;SDS011;31127;52.078;4.370;2023-03-12T16:12:30;55.60;;;10.98;;
45388;SDS011;31127;52.078;4.370;2023-03-12T16:17:26;56.57;;;11.23;;
45388;SDS011;31127;52.078;4.370;2023-03-12T16:22:21;64.55;;;13.40;;
45388;SDS011;31127;52.078;4.370;2023-03-12T16:27:17;70.95;;;14.27;;
45388;SDS011;31127;52.078;4.370;2023-03-12T16:32:15;73.85;;;12.68;;
45388;SDS011;31127;52.078;4.370;2023-03-12T16:37:11;64.80;;;11.55;;
45388;SDS011;31127;52.078;4.370;2023-03-12T16:42:17;83.13;;;12.55;;
45388;SDS011;31127;52.078;4.370;2023-03-12T16:47:13;61.75;;;11.27;;
45388;SDS011;31127;52.078;4.370;2023-03-12T16:52:19;64.90;;;11.98;;
45388;SDS011;31127;52.078;4.370;2023-03-12T16:57:23;63.42;;;13.00;;
45388;SDS011;31127;52.078;4.370;2023-03-12T17:02:20;56.78;;;9.20;;
45388;SDS011;31127;52.078;4.370;2023-03-12T17:07:16;45.13;;;7.60;;
45388;SDS011;31127;52.078;4.370;2023-03-12T17:12:34;51.30;;;8.23;;
45388;SDS011;31127;52.078;4.370;2023-03-12T17:17:28;47.78;;;7.53;;
45388;SDS011;31127;52.078;4.370;2023-03-12T17:22:45;41.67;;;7.30;;
45388;SDS011;31127;52.078;4.370;2023-03-12T17:27:47;24.83;;;6.17;;
45388;SDS011;31127;52.078;4.370;2023-03-12T17:32:43;31.15;;;4.97;;
45388;SDS011;31127;52.078;4.370;2023-03-12T17:37:59;29.13;;;4.90;;
45388;SDS011;31127;52.078;4.370;2023-03-12T17:42:54;22.38;;;4.72;;
45388;SDS011;31127;52.078;4.370;2023-03-12T17:48:10;30.27;;;5.45;;
45388;SDS011;31127;52.078;4.370;2023-03-12T17:53:25;26.42;;;6.35;;
45388;SDS011;31127;52.078;4.370;2023-03-12T17:58:21;29.02;;;5.03;;
45388;SDS011;31127;52.078;4.370;2023-03-12T18:03:16;33.38;;;6.07;;
45388;SDS011;31127;52.078;4.370;2023-03-12T18:08:32;28.95;;;5.40;;
45388;SDS011;31127;52.078;4.370;2023-03-12T18:13:47;33.38;;;5.28;;
45388;SDS011;31127;52.078;4.370;2023-03-12T18:18:42;29.70;;;6.50;;
45388;SDS011;31127;52.078;4.370;2023-03-12T18:23:38;25.60;;;5.50;;
45388;SDS011;31127;52.078;4.370;2023-03-12T18:28:50;35.28;;;6.75;;
45388;SDS011;31127;52.078;4.370;2023-03-12T18:33:45;36.00;;;6.70;;
45388;SDS011;31127;52.078;4.370;2023-03-12T18:38:41;26.67;;;5.43;;
45388;SDS011;31127;52.078;4.370;2023-03-12T18:43:36;29.70;;;6.20;;
45388;SDS011;31127;52.078;4.370;2023-03-12T18:48:32;26.55;;;5.30;;
45388;SDS011;31127;52.078;4.370;2023-03-12T18:53:27;34.35;;;6.47;;
45388;SDS011;31127;52.078;4.370;2023-03-12T18:58:43;30.73;;;4.13;;
45388;SDS011;31127;52.078;4.370;2023-03-12T19:03:38;22.48;;;5.35;;
45388;SDS011;31127;52.078;4.370;2023-03-12T19:08:34;34.00;;;4.50;;
45388;SDS011;31127;52.078;4.370;2023-03-12T19:13:31;22.85;;;5.53;;
45388;SDS011;31127;52.078;4.370;2023-03-12T19:18:27;35.67;;;4.45;;
45388;SDS011;31127;52.078;4.370;2023-03-12T19:23:22;30.00;;;6.88;;
45388;SDS011;31127;52.078;4.370;2023-03-12T19:28:18;32.78;;;5.45;;
45388;SDS011;31127;52.078;4.370;2023-03-12T19:33:13;33.15;;;6.30;;
45388;SDS011;31127;52.078;4.370;2023-03-12T19:38:29;27.70;;;6.10;;
45388;SDS011;31127;52.078;4.370;2023-03-12T19:43:44;32.85;;;5.65;;
45388;SDS011;31127;52.078;4.370;2023-03-12T19:48:40;29.97;;;4.47;;
45388;SDS011;31127;52.078;4.370;2023-03-12T19:53:38;41.10;;;7.78;;
45388;SDS011;31127;52.078;4.370;2023-03-12T19:58:34;46.42;;;7.90;;
45388;SDS011;31127;52.078;4.370;2023-03-12T20:03:29;35.55;;;6.32;;
45388;SDS011;31127;52.078;4.370;2023-03-12T20:08:45;38.60;;;7.10;;
45388;SDS011;31127;52.078;4.370;2023-03-12T20:13:43;43.67;;;6.78;;
45388;SDS011;31127;52.078;4.370;2023-03-12T20:18:39;36.45;;;6.35;;
45388;SDS011;31127;52.078;4.370;2023-03-12T20:23:34;39.03;;;6.35;;
45388;SDS011;31127;52.078;4.370;2023-03-12T20:28:30;31.48;;;5.28;;
45388;SDS011;31127;52.078;4.370;2023-03-12T20:33:25;34.20;;;6.55;;
45388;SDS011;31127;52.078;4.370;2023-03-12T20:38:21;33.55;;;6.40;;
45388;SDS011;31127;52.078;4.370;2023-03-12T20:43:16;27.47;;;5.77;;
45388;SDS011;31127;52.078;4.370;2023-03-12T20:48:13;32.17;;;5.47;;
45388;SDS011;31127;52.078;4.370;2023-03-12T20:53:08;37.42;;;7.22;;
45388;SDS011;31127;52.078;4.370;2023-03-12T20:58:04;31.63;;;5.40;;
45388;SDS011;31127;52.078;4.370;2023-03-12T21:03:00;33.45;;;5.03;;
45388;SDS011;31127;52.078;4.370;2023-03-12T21:08:15;29.02;;;6.43;;
45388;SDS011;31127;52.078;4.370;2023-03-12T21:13:11;32.33;;;6.18;;
45388;SDS011;31127;52.078;4.370;2023-03-12T21:18:07;40.38;;;6.88;;
45388;SDS011;31127;52.078;4.370;2023-03-12T21:23:03;36.72;;;5.70;;
45388;SDS011;31127;52.078;4.370;2023-03-12T21:27:59;30.25;;;5.75;;
45388;SDS011;31127;52.078;4.370;2023-03-12T21:32:54;33.35;;;5.55;;
45388;SDS011;31127;52.078;4.370;2023-03-12T21:37:50;28.40;;;6.18;;
45388;SDS011;31127;52.078;4.370;2023-03-12T21:42:45;35.17;;;7.07;;
45388;SDS011;31127;52.078;4.370;2023-03-12T21:47:46;32.63;;;6.13;;
45388;SDS011;31127;52.078;4.370;2023-03-12T21:52:42;33.85;;;5.57;;
45388;SDS011;31127;52.078;4.370;2023-03-12T21:57:44;34.40;;;7.22;;
45388;SDS011;31127;52.078;4.370;2023-03-12T22:02:41;33.03;;;7.85;;
45388;SDS011;31127;52.078;4.370;2023-03-12T22:07:36;39.20;;;7.10;;
45388;SDS011;31127;52.078;4.370;2023-03-12T22:12:52;41.40;;;8.60;;
45388;SDS011;31127;52.078;4.370;2023-03-12T22:18:07;34.17;;;7.38;;
45388;SDS011;31127;52.078;4.370;2023-03-12T22:23:03;39.33;;;8.30;;
45388;SDS011;31127;52.078;4.370;2023-03-12T22:28:18;38.42;;;7.50;;
45388;SDS011;31127;52.078;4.370;2023-03-12T22:33:14;46.55;;;7.95;;
45388;SDS011;31127;52.078;4.370;2023-03-12T22:38:09;52.67;;;9.20;;
45388;SDS011;31127;52.078;4.370;2023-03-12T22:43:05;38.47;;;8.48;;
45388;SDS011;31127;52.078;4.370;2023-03-12T22:48:00;42.03;;;10.15;;
45388;SDS011;31127;52.078;4.370;2023-03-12T22:52:56;54.50;;;9.68;;
45388;SDS011;31127;52.078;4.370;2023-03-12T22:57:52;45.50;;;7.88;;
45388;SDS011;31127;52.078;4.370;2023-03-12T23:02:48;32.03;;;7.78;;
45388;SDS011;31127;52.078;4.370;2023-03-12T23:07:43;31.15;;;9.02;;
45388;SDS011;31127;52.078;4.370;2023-03-12T23:12:38;46.07;;;9.00;;
45388;SDS011;31127;52.078;4.370;2023-03-12T23:17:34;38.00;;;7.68;;
45388;SDS011;31127;52.078;4.370;2023-03-12T23:22:49;34.53;;;6.78;;
45388;SDS011;31127;52.078;4.370;2023-03-12T23:27:45;29.90;;;6.13;;
45388;SDS011;31127;52.078;4.370;2023-03-12T23:32:40;32.63;;;7.57;;
45388;SDS011;31127;52.078;4.370;2023-03-12T23:37:36;25.45;;;5.43;;
45388;SDS011;31127;52.078;4.370;2023-03-12T23:42:31;31.52;;;6.55;;
45388;SDS011;31127;52.078;4.370;2023-03-12T23:47:27;31.25;;;7.28;;
45388;SDS011;31127;52.078;4.370;2023-03-12T23:52:24;31.60;;;5.82;;
45388;SDS011;31127;52.078;4.370;2023-03-12T23:57:19;36.53;;;6.88;;
